sensor_id;sensor_type;location;lat;lon;timestamp;temperature;humidity
22781;DHT22;11557;50.884;4.322;2023-06-24T00:00:58;21.60;99.90
22781;DHT22;11557;50.884;4.322;2023-06-24T00:03:23;21.50;99.90
22781;DHT22;11557;50.884;4.322;2023-06-24T00:05:49;21.50;99.90
22781;DHT22;11557;50.884;4.322;2023-06-24T00:08:16;21.40;99.90
22781;DHT22;11557;50.884;4.322;2023-06-24T00:10:45;21.30;99.90
22781;DHT22;11557;50.884;4.322;2023-06-24T00:13:12;21.30;99.90
22781;DHT22;11557;50.884;4.322;2023-06-24T00:15:38;21.30;99.90
22781;DHT22;11557;50.884;4.322;2023-06-24T00:18:10;21.30;99.90
22781;DHT22;11557;50.884;4.322;2023-06-24T00:20:36;21.20;99.90
22781;DHT22;11557;50.884;4.322;2023-06-24T00:23:02;21.30;99.90
22781;DHT22;11557;50.884;4.322;2023-06-24T00:25:29;21.30;99.90
22781;DHT22;11557;50.884;4.322;2023-06-24T00:27:54;21.20;99.90
22781;DHT22;11557;50.884;4.322;2023-06-24T00:30:21;21.10;99.90
22781;DHT22;11557;50.884;4.322;2023-06-24T00:32:47;21.10;99.90
22781;DHT22;11557;50.884;4.322;2023-06-24T00:35:13;21.20;99.90
22781;DHT22;11557;50.884;4.322;2023-06-24T00:37:39;21.10;99.90
22781;DHT22;11557;50.884;4.322;2023-06-24T00:40:06;21.00;99.90
22781;DHT22;11557;50.884;4.322;2023-06-24T00:42:35;21.00;99.90
22781;DHT22;11557;50.884;4.322;2023-06-24T00:45:01;20.90;99.90
22781;DHT22;11557;50.884;4.322;2023-06-24T00:47:31;20.90;99.90
22781;DHT22;11557;50.884;4.322;2023-06-24T00:49:57;20.90;99.90
22781;DHT22;11557;50.884;4.322;2023-06-24T00:52:23;20.80;99.90
22781;DHT22;11557;50.884;4.322;2023-06-24T00:54:49;20.80;99.90
22781;DHT22;11557;50.884;4.322;2023-06-24T00:57:15;20.80;99.90
22781;DHT22;11557;50.884;4.322;2023-06-24T00:59:44;20.80;99.90
22781;DHT22;11557;50.884;4.322;2023-06-24T01:02:11;20.90;99.90
22781;DHT22;11557;50.884;4.322;2023-06-24T01:04:37;20.80;99.90
22781;DHT22;11557;50.884;4.322;2023-06-24T01:07:04;20.80;99.90
22781;DHT22;11557;50.884;4.322;2023-06-24T01:09:32;20.80;99.90
22781;DHT22;11557;50.884;4.322;2023-06-24T01:11:59;20.70;99.90
22781;DHT22;11557;50.884;4.322;2023-06-24T01:14:24;20.70;99.90
22781;DHT22;11557;50.884;4.322;2023-06-24T01:17:02;20.60;99.90
22781;DHT22;11557;50.884;4.322;2023-06-24T01:22:15;20.60;99.90
22781;DHT22;11557;50.884;4.322;2023-06-24T01:27:57;20.50;99.90
22781;DHT22;11557;50.884;4.322;2023-06-24T01:33:26;20.40;99.90
22781;DHT22;11557;50.884;4.322;2023-06-24T01:35:57;20.40;99.90
22781;DHT22;11557;50.884;4.322;2023-06-24T01:38:48;20.40;99.90
22781;DHT22;11557;50.884;4.322;2023-06-24T01:41:21;20.30;99.90
22781;DHT22;11557;50.884;4.322;2023-06-24T01:43:48;20.20;99.90
22781;DHT22;11557;50.884;4.322;2023-06-24T01:46:16;20.30;99.90
22781;DHT22;11557;50.884;4.322;2023-06-24T01:48:44;20.30;99.90
22781;DHT22;11557;50.884;4.322;2023-06-24T01:51:13;20.30;99.90
22781;DHT22;11557;50.884;4.322;2023-06-24T01:53:44;20.30;99.90
22781;DHT22;11557;50.884;4.322;2023-06-24T01:56:14;20.20;99.90
22781;DHT22;11557;50.884;4.322;2023-06-24T01:58:42;20.30;99.90
22781;DHT22;11557;50.884;4.322;2023-06-24T02:01:12;20.30;99.90
22781;DHT22;11557;50.884;4.322;2023-06-24T02:03:39;20.20;99.90
22781;DHT22;11557;50.884;4.322;2023-06-24T02:06:06;20.10;99.90
22781;DHT22;11557;50.884;4.322;2023-06-24T02:08:36;20.00;99.90
22781;DHT22;11557;50.884;4.322;2023-06-24T02:11:06;19.90;99.90
22781;DHT22;11557;50.884;4.322;2023-06-24T02:13:33;19.90;99.90
22781;DHT22;11557;50.884;4.322;2023-06-24T02:16:04;20.00;99.90
22781;DHT22;11557;50.884;4.322;2023-06-24T02:18:33;19.90;99.90
22781;DHT22;11557;50.884;4.322;2023-06-24T02:21:01;19.90;99.90
22781;DHT22;11557;50.884;4.322;2023-06-24T02:23:28;19.90;99.90
22781;DHT22;11557;50.884;4.322;2023-06-24T02:25:54;19.90;99.90
22781;DHT22;11557;50.884;4.322;2023-06-24T02:28:21;19.90;99.90
22781;DHT22;11557;50.884;4.322;2023-06-24T02:30:47;20.00;99.90
22781;DHT22;11557;50.884;4.322;2023-06-24T02:33:13;20.00;99.90
22781;DHT22;11557;50.884;4.322;2023-06-24T02:35:39;20.00;99.90
22781;DHT22;11557;50.884;4.322;2023-06-24T02:38:07;19.90;99.90
22781;DHT22;11557;50.884;4.322;2023-06-24T02:40:33;19.90;99.90
22781;DHT22;11557;50.884;4.322;2023-06-24T02:42:59;19.80;99.90
22781;DHT22;11557;50.884;4.322;2023-06-24T02:45:25;19.70;99.90
22781;DHT22;11557;50.884;4.322;2023-06-24T02:47:52;19.70;99.90
22781;DHT22;11557;50.884;4.322;2023-06-24T02:50:18;19.70;99.90
22781;DHT22;11557;50.884;4.322;2023-06-24T02:52:45;19.70;99.90
22781;DHT22;11557;50.884;4.322;2023-06-24T02:55:11;19.70;99.90
22781;DHT22;11557;50.884;4.322;2023-06-24T02:57:37;19.70;99.90
22781;DHT22;11557;50.884;4.322;2023-06-24T03:00:04;19.50;99.90
22781;DHT22;11557;50.884;4.322;2023-06-24T03:02:34;19.60;99.90
22781;DHT22;11557;50.884;4.322;2023-06-24T03:05:01;19.60;99.90
22781;DHT22;11557;50.884;4.322;2023-06-24T03:07:27;19.60;99.90
22781;DHT22;11557;50.884;4.322;2023-06-24T03:09:53;19.60;99.90
22781;DHT22;11557;50.884;4.322;2023-06-24T03:12:19;19.50;99.90
22781;DHT22;11557;50.884;4.322;2023-06-24T03:14:45;19.60;99.90
22781;DHT22;11557;50.884;4.322;2023-06-24T03:17:11;19.50;99.90
22781;DHT22;11557;50.884;4.322;2023-06-24T03:19:37;19.50;99.90
22781;DHT22;11557;50.884;4.322;2023-06-24T03:22:03;19.50;99.90
22781;DHT22;11557;50.884;4.322;2023-06-24T03:24:29;19.50;99.90
22781;DHT22;11557;50.884;4.322;2023-06-24T03:26:56;19.50;99.90
22781;DHT22;11557;50.884;4.322;2023-06-24T03:29:25;19.50;99.90
22781;DHT22;11557;50.884;4.322;2023-06-24T03:31:50;19.50;99.90
22781;DHT22;11557;50.884;4.322;2023-06-24T03:34:16;19.40;99.90
22781;DHT22;11557;50.884;4.322;2023-06-24T03:36:42;19.40;99.90
22781;DHT22;11557;50.884;4.322;2023-06-24T03:39:08;19.30;99.90
22781;DHT22;11557;50.884;4.322;2023-06-24T03:41:34;19.20;99.90
22781;DHT22;11557;50.884;4.322;2023-06-24T03:44:00;19.20;99.90
22781;DHT22;11557;50.884;4.322;2023-06-24T03:46:26;19.20;99.90
22781;DHT22;11557;50.884;4.322;2023-06-24T03:48:52;19.30;99.90
22781;DHT22;11557;50.884;4.322;2023-06-24T03:51:17;19.20;99.90
22781;DHT22;11557;50.884;4.322;2023-06-24T03:53:43;19.40;99.90
22781;DHT22;11557;50.884;4.322;2023-06-24T03:56:08;19.30;99.90
22781;DHT22;11557;50.884;4.322;2023-06-24T03:58:34;19.40;99.90
22781;DHT22;11557;50.884;4.322;2023-06-24T04:01:01;19.40;99.90
22781;DHT22;11557;50.884;4.322;2023-06-24T04:03:27;19.30;99.90
22781;DHT22;11557;50.884;4.322;2023-06-24T04:05:55;19.30;99.90
22781;DHT22;11557;50.884;4.322;2023-06-24T04:08:21;19.40;99.90
22781;DHT22;11557;50.884;4.322;2023-06-24T04:10:47;19.40;99.90
22781;DHT22;11557;50.884;4.322;2023-06-24T04:13:13;19.30;99.90
22781;DHT22;11557;50.884;4.322;2023-06-24T04:15:38;19.30;99.90
22781;DHT22;11557;50.884;4.322;2023-06-24T04:18:04;19.40;99.90
22781;DHT22;11557;50.884;4.322;2023-06-24T04:20:30;19.40;99.90
22781;DHT22;11557;50.884;4.322;2023-06-24T04:22:55;19.50;99.90
22781;DHT22;11557;50.884;4.322;2023-06-24T04:25:21;19.40;99.90
22781;DHT22;11557;50.884;4.322;2023-06-24T04:27:47;19.40;99.90
22781;DHT22;11557;50.884;4.322;2023-06-24T04:30:12;19.40;99.90
22781;DHT22;11557;50.884;4.322;2023-06-24T04:32:38;19.40;99.90
22781;DHT22;11557;50.884;4.322;2023-06-24T04:35:04;19.50;99.90
22781;DHT22;11557;50.884;4.322;2023-06-24T04:37:30;19.50;99.90
22781;DHT22;11557;50.884;4.322;2023-06-24T04:39:55;19.50;99.90
22781;DHT22;11557;50.884;4.322;2023-06-24T04:42:22;19.40;99.90
22781;DHT22;11557;50.884;4.322;2023-06-24T04:44:48;19.40;99.90
22781;DHT22;11557;50.884;4.322;2023-06-24T04:47:17;19.40;99.90
22781;DHT22;11557;50.884;4.322;2023-06-24T04:49:43;19.40;99.90
22781;DHT22;11557;50.884;4.322;2023-06-24T04:52:10;19.40;99.90
22781;DHT22;11557;50.884;4.322;2023-06-24T04:54:37;19.40;99.90
22781;DHT22;11557;50.884;4.322;2023-06-24T04:57:05;19.40;99.90
22781;DHT22;11557;50.884;4.322;2023-06-24T04:59:31;19.40;99.90
22781;DHT22;11557;50.884;4.322;2023-06-24T05:01:56;19.30;99.90
22781;DHT22;11557;50.884;4.322;2023-06-24T05:04:22;19.20;99.90
22781;DHT22;11557;50.884;4.322;2023-06-24T05:06:48;19.30;99.90
22781;DHT22;11557;50.884;4.322;2023-06-24T05:09:16;19.30;99.90
22781;DHT22;11557;50.884;4.322;2023-06-24T05:11:41;19.30;99.90
22781;DHT22;11557;50.884;4.322;2023-06-24T05:14:07;19.30;99.90
22781;DHT22;11557;50.884;4.322;2023-06-24T05:16:33;19.40;99.90
22781;DHT22;11557;50.884;4.322;2023-06-24T05:18:58;19.50;99.90
22781;DHT22;11557;50.884;4.322;2023-06-24T05:21:24;19.50;99.90
22781;DHT22;11557;50.884;4.322;2023-06-24T05:23:49;19.50;99.90
22781;DHT22;11557;50.884;4.322;2023-06-24T05:26:15;19.30;99.90
22781;DHT22;11557;50.884;4.322;2023-06-24T05:28:41;19.30;99.90
22781;DHT22;11557;50.884;4.322;2023-06-24T05:31:06;19.20;99.90
22781;DHT22;11557;50.884;4.322;2023-06-24T05:33:32;19.20;99.90
22781;DHT22;11557;50.884;4.322;2023-06-24T05:35:58;19.30;99.90
22781;DHT22;11557;50.884;4.322;2023-06-24T05:38:23;19.30;99.90
22781;DHT22;11557;50.884;4.322;2023-06-24T05:40:49;19.20;99.90
22781;DHT22;11557;50.884;4.322;2023-06-24T05:43:14;19.10;99.90
22781;DHT22;11557;50.884;4.322;2023-06-24T05:45:40;19.20;99.90
22781;DHT22;11557;50.884;4.322;2023-06-24T05:48:06;19.20;99.90
22781;DHT22;11557;50.884;4.322;2023-06-24T05:50:32;19.30;99.90
22781;DHT22;11557;50.884;4.322;2023-06-24T05:52:58;19.30;99.90
22781;DHT22;11557;50.884;4.322;2023-06-24T05:55:23;19.40;99.90
22781;DHT22;11557;50.884;4.322;2023-06-24T05:57:49;19.40;99.90
22781;DHT22;11557;50.884;4.322;2023-06-24T06:00:16;19.50;99.90
22781;DHT22;11557;50.884;4.322;2023-06-24T06:02:42;19.50;99.90
22781;DHT22;11557;50.884;4.322;2023-06-24T06:05:08;19.60;99.90
22781;DHT22;11557;50.884;4.322;2023-06-24T06:07:34;19.50;99.90
22781;DHT22;11557;50.884;4.322;2023-06-24T06:10:00;19.40;99.90
22781;DHT22;11557;50.884;4.322;2023-06-24T06:12:26;19.50;99.90
22781;DHT22;11557;50.884;4.322;2023-06-24T06:14:51;19.50;99.90
22781;DHT22;11557;50.884;4.322;2023-06-24T06:17:17;19.50;99.90
22781;DHT22;11557;50.884;4.322;2023-06-24T06:19:43;19.50;99.90
22781;DHT22;11557;50.884;4.322;2023-06-24T06:22:12;19.40;99.90
22781;DHT22;11557;50.884;4.322;2023-06-24T06:24:37;18.50;99.90
22781;DHT22;11557;50.884;4.322;2023-06-24T06:27:03;19.50;99.90
22781;DHT22;11557;50.884;4.322;2023-06-24T06:29:29;19.40;99.90
22781;DHT22;11557;50.884;4.322;2023-06-24T06:31:55;19.40;99.90
22781;DHT22;11557;50.884;4.322;2023-06-24T06:34:22;19.40;99.90
22781;DHT22;11557;50.884;4.322;2023-06-24T06:36:48;19.40;99.90
22781;DHT22;11557;50.884;4.322;2023-06-24T06:39:13;20.20;99.90
22781;DHT22;11557;50.884;4.322;2023-06-24T06:41:39;23.30;99.90
22781;DHT22;11557;50.884;4.322;2023-06-24T06:44:05;26.50;99.90
22781;DHT22;11557;50.884;4.322;2023-06-24T06:46:30;29.10;99.90
22781;DHT22;11557;50.884;4.322;2023-06-24T06:48:56;30.80;99.90
22781;DHT22;11557;50.884;4.322;2023-06-24T06:51:22;33.40;99.90
22781;DHT22;11557;50.884;4.322;2023-06-24T06:53:49;35.00;99.90
22781;DHT22;11557;50.884;4.322;2023-06-24T06:56:20;34.90;99.90
22781;DHT22;11557;50.884;4.322;2023-06-24T06:58:47;37.20;99.90
22781;DHT22;11557;50.884;4.322;2023-06-24T07:01:13;37.50;99.90
22781;DHT22;11557;50.884;4.322;2023-06-24T07:03:39;37.90;98.30
22781;DHT22;11557;50.884;4.322;2023-06-24T07:06:05;38.40;97.50
22781;DHT22;11557;50.884;4.322;2023-06-24T07:08:31;39.40;95.70
22781;DHT22;11557;50.884;4.322;2023-06-24T07:10:56;39.70;93.80
22781;DHT22;11557;50.884;4.322;2023-06-24T07:13:22;38.80;92.70
22781;DHT22;11557;50.884;4.322;2023-06-24T07:15:47;39.10;92.30
22781;DHT22;11557;50.884;4.322;2023-06-24T07:18:13;39.50;92.00
22781;DHT22;11557;50.884;4.322;2023-06-24T07:20:39;40.00;91.60
22781;DHT22;11557;50.884;4.322;2023-06-24T07:23:04;41.50;91.90
22781;DHT22;11557;50.884;4.322;2023-06-24T07:25:30;42.50;90.00
22781;DHT22;11557;50.884;4.322;2023-06-24T07:27:56;42.30;84.20
22781;DHT22;11557;50.884;4.322;2023-06-24T07:30:21;41.70;83.80
22781;DHT22;11557;50.884;4.322;2023-06-24T07:32:48;41.40;84.80
22781;DHT22;11557;50.884;4.322;2023-06-24T07:35:14;42.60;81.30
22781;DHT22;11557;50.884;4.322;2023-06-24T07:37:41;43.20;82.10
22781;DHT22;11557;50.884;4.322;2023-06-24T07:40:07;43.30;79.20
22781;DHT22;11557;50.884;4.322;2023-06-24T07:42:33;43.50;77.80
22781;DHT22;11557;50.884;4.322;2023-06-24T07:44:59;42.90;76.60
22781;DHT22;11557;50.884;4.322;2023-06-24T07:47:25;42.40;79.10
22781;DHT22;11557;50.884;4.322;2023-06-24T07:49:51;42.40;76.70
22781;DHT22;11557;50.884;4.322;2023-06-24T07:52:17;39.90;79.20
22781;DHT22;11557;50.884;4.322;2023-06-24T07:54:42;39.60;83.20
22781;DHT22;11557;50.884;4.322;2023-06-24T07:57:08;38.90;81.30
22781;DHT22;11557;50.884;4.322;2023-06-24T07:59:34;40.40;82.00
22781;DHT22;11557;50.884;4.322;2023-06-24T08:01:59;39.80;80.80
22781;DHT22;11557;50.884;4.322;2023-06-24T08:04:25;40.70;79.30
22781;DHT22;11557;50.884;4.322;2023-06-24T08:06:51;39.80;78.30
22781;DHT22;11557;50.884;4.322;2023-06-24T08:09:17;39.50;81.30
22781;DHT22;11557;50.884;4.322;2023-06-24T08:11:44;40.20;79.70
22781;DHT22;11557;50.884;4.322;2023-06-24T08:14:09;40.20;79.10
22781;DHT22;11557;50.884;4.322;2023-06-24T08:16:35;40.70;78.40
22781;DHT22;11557;50.884;4.322;2023-06-24T08:19:01;40.60;76.30
22781;DHT22;11557;50.884;4.322;2023-06-24T08:21:26;39.70;77.80
22781;DHT22;11557;50.884;4.322;2023-06-24T08:23:52;39.10;76.90
22781;DHT22;11557;50.884;4.322;2023-06-24T08:26:19;39.00;78.00
22781;DHT22;11557;50.884;4.322;2023-06-24T08:28:46;38.70;80.80
22781;DHT22;11557;50.884;4.322;2023-06-24T08:31:12;38.90;79.30
22781;DHT22;11557;50.884;4.322;2023-06-24T08:33:38;38.60;81.20
22781;DHT22;11557;50.884;4.322;2023-06-24T08:36:03;37.70;79.80
22781;DHT22;11557;50.884;4.322;2023-06-24T08:38:29;37.90;80.50
22781;DHT22;11557;50.884;4.322;2023-06-24T08:40:55;36.70;79.70
22781;DHT22;11557;50.884;4.322;2023-06-24T08:43:21;36.40;82.60
22781;DHT22;11557;50.884;4.322;2023-06-24T08:45:47;36.50;81.30
22781;DHT22;11557;50.884;4.322;2023-06-24T08:48:13;37.20;82.10
22781;DHT22;11557;50.884;4.322;2023-06-24T08:50:50;37.50;81.90
22781;DHT22;11557;50.884;4.322;2023-06-24T08:53:18;38.30;80.40
22781;DHT22;11557;50.884;4.322;2023-06-24T08:55:45;37.10;81.30
22781;DHT22;11557;50.884;4.322;2023-06-24T08:58:11;36.30;83.50
22781;DHT22;11557;50.884;4.322;2023-06-24T09:00:37;36.70;83.20
22781;DHT22;11557;50.884;4.322;2023-06-24T09:03:03;36.10;85.60
22781;DHT22;11557;50.884;4.322;2023-06-24T09:05:28;35.90;82.80
22781;DHT22;11557;50.884;4.322;2023-06-24T09:07:54;35.60;86.80
22781;DHT22;11557;50.884;4.322;2023-06-24T09:10:30;35.30;82.70
22781;DHT22;11557;50.884;4.322;2023-06-24T09:12:57;34.50;84.70
22781;DHT22;11557;50.884;4.322;2023-06-24T09:15:23;34.80;86.50
22781;DHT22;11557;50.884;4.322;2023-06-24T09:17:49;35.40;87.40
22781;DHT22;11557;50.884;4.322;2023-06-24T09:20:15;35.20;87.30
22781;DHT22;11557;50.884;4.322;2023-06-24T09:22:45;35.80;85.30
22781;DHT22;11557;50.884;4.322;2023-06-24T09:25:17;35.60;86.00
22781;DHT22;11557;50.884;4.322;2023-06-24T09:27:47;35.60;83.90
22781;DHT22;11557;50.884;4.322;2023-06-24T09:30:20;34.80;85.40
22781;DHT22;11557;50.884;4.322;2023-06-24T09:32:51;34.80;85.40
22781;DHT22;11557;50.884;4.322;2023-06-24T09:35:22;34.00;83.70
22781;DHT22;11557;50.884;4.322;2023-06-24T09:37:56;34.20;85.00
22781;DHT22;11557;50.884;4.322;2023-06-24T09:40:24;33.70;85.30
22781;DHT22;11557;50.884;4.322;2023-06-24T09:42:58;33.80;88.30
22781;DHT22;11557;50.884;4.322;2023-06-24T09:45:29;34.20;87.80
22781;DHT22;11557;50.884;4.322;2023-06-24T09:47:56;33.80;86.30
22781;DHT22;11557;50.884;4.322;2023-06-24T09:50:23;32.90;85.80
22781;DHT22;11557;50.884;4.322;2023-06-24T09:52:50;32.60;90.00
22781;DHT22;11557;50.884;4.322;2023-06-24T09:55:18;32.10;86.50
22781;DHT22;11557;50.884;4.322;2023-06-24T09:57:50;31.60;90.80
22781;DHT22;11557;50.884;4.322;2023-06-24T10:00:18;31.40;90.60
22781;DHT22;11557;50.884;4.322;2023-06-24T10:02:45;31.20;89.90
22781;DHT22;11557;50.884;4.322;2023-06-24T10:05:12;31.40;93.70
22781;DHT22;11557;50.884;4.322;2023-06-24T10:07:39;31.10;90.80
22781;DHT22;11557;50.884;4.322;2023-06-24T10:10:07;31.20;92.90
22781;DHT22;11557;50.884;4.322;2023-06-24T10:12:34;31.70;93.90
22781;DHT22;11557;50.884;4.322;2023-06-24T10:15:00;31.50;91.80
22781;DHT22;11557;50.884;4.322;2023-06-24T10:17:26;31.10;91.90
22781;DHT22;11557;50.884;4.322;2023-06-24T10:19:53;30.60;90.30
22781;DHT22;11557;50.884;4.322;2023-06-24T10:22:25;30.20;93.10
22781;DHT22;11557;50.884;4.322;2023-06-24T10:24:52;29.90;92.30
22781;DHT22;11557;50.884;4.322;2023-06-24T10:27:20;29.30;92.80
22781;DHT22;11557;50.884;4.322;2023-06-24T10:29:53;29.50;93.70
22781;DHT22;11557;50.884;4.322;2023-06-24T10:32:19;29.60;95.00
22781;DHT22;11557;50.884;4.322;2023-06-24T10:34:58;29.50;93.80
22781;DHT22;11557;50.884;4.322;2023-06-24T10:37:31;29.50;94.50
22781;DHT22;11557;50.884;4.322;2023-06-24T10:39:58;29.40;97.50
22781;DHT22;11557;50.884;4.322;2023-06-24T10:42:27;29.30;95.40
22781;DHT22;11557;50.884;4.322;2023-06-24T10:44:54;29.50;99.30
22781;DHT22;11557;50.884;4.322;2023-06-24T10:47:21;29.50;99.10
22781;DHT22;11557;50.884;4.322;2023-06-24T10:49:47;29.40;96.70
22781;DHT22;11557;50.884;4.322;2023-06-24T10:52:13;29.40;99.90
22781;DHT22;11557;50.884;4.322;2023-06-24T10:54:41;29.50;98.00
22781;DHT22;11557;50.884;4.322;2023-06-24T10:57:08;29.70;99.90
22781;DHT22;11557;50.884;4.322;2023-06-24T10:59:46;29.50;97.60
22781;DHT22;11557;50.884;4.322;2023-06-24T11:02:16;29.20;97.00
22781;DHT22;11557;50.884;4.322;2023-06-24T11:07:19;29.80;98.50
22781;DHT22;11557;50.884;4.322;2023-06-24T11:09:52;30.30;98.20
22781;DHT22;11557;50.884;4.322;2023-06-24T11:12:19;30.10;97.60
22781;DHT22;11557;50.884;4.322;2023-06-24T11:14:45;30.10;96.40
22781;DHT22;11557;50.884;4.322;2023-06-24T11:17:10;30.30;97.90
22781;DHT22;11557;50.884;4.322;2023-06-24T11:19:36;30.20;98.70
22781;DHT22;11557;50.884;4.322;2023-06-24T11:22:06;30.10;98.10
22781;DHT22;11557;50.884;4.322;2023-06-24T11:24:32;30.30;99.90
22781;DHT22;11557;50.884;4.322;2023-06-24T11:26:58;30.10;99.70
22781;DHT22;11557;50.884;4.322;2023-06-24T11:29:24;30.20;98.00
22781;DHT22;11557;50.884;4.322;2023-06-24T11:31:50;30.30;97.40
22781;DHT22;11557;50.884;4.322;2023-06-24T11:34:16;30.50;99.90
22781;DHT22;11557;50.884;4.322;2023-06-24T11:36:42;30.50;94.80
22781;DHT22;11557;50.884;4.322;2023-06-24T11:39:08;30.70;99.00
22781;DHT22;11557;50.884;4.322;2023-06-24T11:41:33;30.70;94.00
22781;DHT22;11557;50.884;4.322;2023-06-24T11:43:59;30.40;95.50
22781;DHT22;11557;50.884;4.322;2023-06-24T11:46:29;30.20;95.40
22781;DHT22;11557;50.884;4.322;2023-06-24T11:49:07;30.10;95.70
22781;DHT22;11557;50.884;4.322;2023-06-24T11:51:36;30.10;97.90
22781;DHT22;11557;50.884;4.322;2023-06-24T11:54:03;30.10;95.20
22781;DHT22;11557;50.884;4.322;2023-06-24T11:56:38;30.00;97.60
22781;DHT22;11557;50.884;4.322;2023-06-24T11:59:05;29.80;95.60
22781;DHT22;11557;50.884;4.322;2023-06-24T12:01:34;29.80;95.00
22781;DHT22;11557;50.884;4.322;2023-06-24T12:04:11;29.90;96.70
22781;DHT22;11557;50.884;4.322;2023-06-24T12:06:37;30.10;94.40
22781;DHT22;11557;50.884;4.322;2023-06-24T12:09:02;30.10;94.00
22781;DHT22;11557;50.884;4.322;2023-06-24T12:11:28;30.00;97.50
22781;DHT22;11557;50.884;4.322;2023-06-24T12:13:54;29.90;93.40
22781;DHT22;11557;50.884;4.322;2023-06-24T12:16:19;30.00;94.60
22781;DHT22;11557;50.884;4.322;2023-06-24T12:18:45;30.00;94.00
22781;DHT22;11557;50.884;4.322;2023-06-24T12:21:11;29.80;95.00
22781;DHT22;11557;50.884;4.322;2023-06-24T12:23:37;29.80;97.80
22781;DHT22;11557;50.884;4.322;2023-06-24T12:26:02;29.60;94.80
22781;DHT22;11557;50.884;4.322;2023-06-24T12:28:28;29.80;99.80
22781;DHT22;11557;50.884;4.322;2023-06-24T12:30:53;29.60;99.10
22781;DHT22;11557;50.884;4.322;2023-06-24T12:33:19;30.00;98.70
22781;DHT22;11557;50.884;4.322;2023-06-24T12:35:46;30.30;97.80
22781;DHT22;11557;50.884;4.322;2023-06-24T12:38:12;30.00;95.40
22781;DHT22;11557;50.884;4.322;2023-06-24T12:40:37;29.90;98.10
22781;DHT22;11557;50.884;4.322;2023-06-24T12:43:03;30.00;97.10
22781;DHT22;11557;50.884;4.322;2023-06-24T12:45:30;30.00;97.50
22781;DHT22;11557;50.884;4.322;2023-06-24T12:47:56;30.30;96.00
22781;DHT22;11557;50.884;4.322;2023-06-24T12:50:21;30.10;96.60
22781;DHT22;11557;50.884;4.322;2023-06-24T12:52:47;30.20;99.90
22781;DHT22;11557;50.884;4.322;2023-06-24T12:55:13;30.30;98.40
22781;DHT22;11557;50.884;4.322;2023-06-24T12:57:39;30.20;96.40
22781;DHT22;11557;50.884;4.322;2023-06-24T13:00:05;30.00;98.70
22781;DHT22;11557;50.884;4.322;2023-06-24T13:02:31;30.00;97.40
22781;DHT22;11557;50.884;4.322;2023-06-24T13:04:57;29.90;97.50
22781;DHT22;11557;50.884;4.322;2023-06-24T13:07:23;29.90;96.80
22781;DHT22;11557;50.884;4.322;2023-06-24T13:09:48;30.10;98.70
22781;DHT22;11557;50.884;4.322;2023-06-24T13:12:14;30.30;98.50
22781;DHT22;11557;50.884;4.322;2023-06-24T13:14:40;30.30;98.10
22781;DHT22;11557;50.884;4.322;2023-06-24T13:17:06;30.10;98.80
22781;DHT22;11557;50.884;4.322;2023-06-24T13:19:31;30.30;95.60
22781;DHT22;11557;50.884;4.322;2023-06-24T13:21:58;30.30;97.50
22781;DHT22;11557;50.884;4.322;2023-06-24T13:24:24;30.60;96.00
22781;DHT22;11557;50.884;4.322;2023-06-24T13:26:51;30.10;97.20
22781;DHT22;11557;50.884;4.322;2023-06-24T13:29:16;30.30;96.80
22781;DHT22;11557;50.884;4.322;2023-06-24T13:31:42;30.40;94.40
22781;DHT22;11557;50.884;4.322;2023-06-24T13:34:08;30.80;96.00
22781;DHT22;11557;50.884;4.322;2023-06-24T13:36:35;30.60;96.20
22781;DHT22;11557;50.884;4.322;2023-06-24T13:39:08;30.40;94.60
22781;DHT22;11557;50.884;4.322;2023-06-24T13:41:37;30.50;95.10
22781;DHT22;11557;50.884;4.322;2023-06-24T13:44:04;30.80;93.10
22781;DHT22;11557;50.884;4.322;2023-06-24T13:46:30;31.20;93.40
22781;DHT22;11557;50.884;4.322;2023-06-24T13:48:57;31.40;92.40
22781;DHT22;11557;50.884;4.322;2023-06-24T13:51:23;31.30;94.20
22781;DHT22;11557;50.884;4.322;2023-06-24T13:53:50;30.90;93.20
22781;DHT22;11557;50.884;4.322;2023-06-24T13:56:17;30.50;93.30
22781;DHT22;11557;50.884;4.322;2023-06-24T13:58:43;30.50;93.60
22781;DHT22;11557;50.884;4.322;2023-06-24T14:01:09;30.70;94.40
22781;DHT22;11557;50.884;4.322;2023-06-24T14:03:34;30.80;93.70
22781;DHT22;11557;50.884;4.322;2023-06-24T14:06:00;31.00;95.10
22781;DHT22;11557;50.884;4.322;2023-06-24T14:08:27;31.20;91.80
22781;DHT22;11557;50.884;4.322;2023-06-24T14:10:54;31.00;92.50
22781;DHT22;11557;50.884;4.322;2023-06-24T14:13:20;30.70;94.40
22781;DHT22;11557;50.884;4.322;2023-06-24T14:15:45;30.50;93.50
22781;DHT22;11557;50.884;4.322;2023-06-24T14:18:11;30.10;93.60
22781;DHT22;11557;50.884;4.322;2023-06-24T14:20:36;30.30;94.10
22781;DHT22;11557;50.884;4.322;2023-06-24T14:23:03;30.70;92.90
22781;DHT22;11557;50.884;4.322;2023-06-24T14:25:29;30.80;93.40
22781;DHT22;11557;50.884;4.322;2023-06-24T14:27:55;30.80;93.30
22781;DHT22;11557;50.884;4.322;2023-06-24T14:30:20;30.50;92.60
22781;DHT22;11557;50.884;4.322;2023-06-24T14:32:46;30.50;92.10
22781;DHT22;11557;50.884;4.322;2023-06-24T14:35:12;30.70;92.60
22781;DHT22;11557;50.884;4.322;2023-06-24T14:37:37;30.90;94.10
22781;DHT22;11557;50.884;4.322;2023-06-24T14:40:03;30.90;92.90
22781;DHT22;11557;50.884;4.322;2023-06-24T14:42:29;30.50;92.90
22781;DHT22;11557;50.884;4.322;2023-06-24T14:44:55;30.20;93.70
22781;DHT22;11557;50.884;4.322;2023-06-24T14:47:20;30.60;94.40
22781;DHT22;11557;50.884;4.322;2023-06-24T14:49:46;31.00;92.80
22781;DHT22;11557;50.884;4.322;2023-06-24T14:52:11;31.30;94.00
22781;DHT22;11557;50.884;4.322;2023-06-24T14:54:37;31.50;95.00
22781;DHT22;11557;50.884;4.322;2023-06-24T14:57:03;31.10;93.90
22781;DHT22;11557;50.884;4.322;2023-06-24T14:59:29;31.20;92.90
22781;DHT22;11557;50.884;4.322;2023-06-24T15:01:54;31.10;93.00
22781;DHT22;11557;50.884;4.322;2023-06-24T15:04:20;30.80;93.00
22781;DHT22;11557;50.884;4.322;2023-06-24T15:06:45;30.70;92.50
22781;DHT22;11557;50.884;4.322;2023-06-24T15:09:11;30.80;92.60
22781;DHT22;11557;50.884;4.322;2023-06-24T15:11:37;31.10;90.90
22781;DHT22;11557;50.884;4.322;2023-06-24T15:14:02;31.40;91.30
22781;DHT22;11557;50.884;4.322;2023-06-24T15:16:29;31.20;90.60
22781;DHT22;11557;50.884;4.322;2023-06-24T15:18:55;31.10;91.50
22781;DHT22;11557;50.884;4.322;2023-06-24T15:21:20;30.90;91.40
22781;DHT22;11557;50.884;4.322;2023-06-24T15:23:46;30.90;91.50
22781;DHT22;11557;50.884;4.322;2023-06-24T15:26:12;31.00;91.30
22781;DHT22;11557;50.884;4.322;2023-06-24T15:28:37;30.80;92.10
22781;DHT22;11557;50.884;4.322;2023-06-24T15:31:03;30.70;93.00
22781;DHT22;11557;50.884;4.322;2023-06-24T15:33:29;30.90;91.20
22781;DHT22;11557;50.884;4.322;2023-06-24T15:35:54;31.00;91.90
22781;DHT22;11557;50.884;4.322;2023-06-24T15:38:20;30.80;91.10